Time,TemperatureF,DewpointF,PressureIn,WindDirection,WindDirectionDegrees,WindSpeedMPH,WindSpeedGustMPH,Humidity,HourlyPrecipIn,Conditions,Clouds,dailyrainin,SoftwareType,DateUTC
2013-03-10 00:00:00,35.4,31.8,30.31,East,83,2.0,4.9,86,0.00,,FEW010,0.00,VWS V14.01,2013-03-10 05:00:00,
2013-03-10 00:01:00,35.5,31.9,30.31,East,83,2.0,2.0,86,0.00,,FEW010,0.00,VWS V14.01,2013-03-10 05:01:00,
2013-03-10 00:02:00,35.4,31.7,30.31,East,83,2.0,2.0,86,0.00,,FEW010,0.00,VWS V14.01,2013-03-10 05:02:00,
2013-03-10 00:03:00,35.5,31.7,30.31,East,83,2.0,2.0,86,0.00,,FEW010,0.00,VWS V14.01,2013-03-10 05:03:00,
2013-03-10 00:08:00,35.5,31.8,30.30,SE,132,5.5,6.3,86,0.00,,FEW010,0.00,VWS V14.01,2013-03-10 05:08:00,
2013-03-10 00:13:00,35.7,32.0,30.31,ENE,68,5.0,6.0,86,0.00,,FEW010,0.00,VWS V14.01,2013-03-10 05:13:00,
2013-03-10 00:18:00,35.7,31.9,30.31,East,82,5.1,6.5,86,0.00,,FEW010,0.00,VWS V14.01,2013-03-10 05:18:00,
2013-03-10 00:23:00,35.7,31.9,30.31,ESE,107,6.5,6.6,86,0.00,,FEW010,0.00,VWS V14.01,2013-03-10 05:23:00,
2013-03-10 00:28:00,35.7,31.9,30.31,ESE,110,3.9,6.5,86,0.00,,FEW010,0.00,VWS V14.01,2013-03-10 05:28:00,
2013-03-10 00:33:00,35.6,31.7,30.31,SE,125,4.2,5.5,85,0.00,,FEW010,0.00,VWS V14.01,2013-03-10 05:33:00,
2013-03-10 00:38:00,35.7,31.9,30.31,SE,134,5.5,6.9,86,0.00,,FEW010,0.00,VWS V14.01,2013-03-10 05:38:00,
2013-03-10 00:43:00,35.8,31.9,30.31,SE,127,6.8,10.1,86,0.00,,FEW010,0.00,VWS V14.01,2013-03-10 05:43:00,
2013-03-10 00:48:00,35.9,31.9,30.31,East,96,2.0,4.9,85,0.00,,FEW010,0.00,VWS V14.01,2013-03-10 05:48:00,
2013-03-10 00:53:00,35.9,31.8,30.31,SE,134,5.0,5.0,85,0.00,,FEW010,0.00,VWS V14.01,2013-03-10 05:53:00,
2013-03-10 00:58:00,36.0,31.9,30.31,ESE,105,4.5,4.9,85,0.00,,FEW010,0.00,VWS V14.01,2013-03-10 05:58:00,
2013-03-10 01:03:00,35.9,31.7,30.31,ESE,121,4.0,4.7,85,0.00,,FEW010,0.00,VWS V14.01,2013-03-10 06:03:00,
2013-03-10 01:04:00,36.6,31.1,30.32,East,101,4.4,5.1,80,0.00,,FEW010,0.00,VWS V14.01,2013-03-10 06:04:00,
2013-03-10 01:05:00,36.6,31.0,30.32,ESE,120,5.0,5.0,80,0.00,,FEW012,0.00,VWS V14.01,2013-03-10 06:05:00,
2013-03-10 01:06:00,36.6,31.0,30.32,NNE,21,3.3,6.7,80,0.00,,FEW012,0.00,VWS V14.01,2013-03-10 06:06:00,
2013-03-10 01:07:00,36.6,31.1,30.32,SE,134,6.9,8.7,80,0.00,,FEW012,0.00,VWS V14.01,2013-03-10 06:07:00,
2013-03-10 01:08:00,35.9,31.8,30.31,SSE,156,4.6,6.9,85,0.00,,FEW010,0.00,VWS V14.01,2013-03-10 06:08:00,
2013-03-10 01:09:00,36.6,31.0,30.32,NE,56,3.1,5.8,80,0.00,,FEW012,0.00,VWS V14.01,2013-03-10 06:09:00,
2013-03-10 01:10:00,36.6,31.0,30.32,East,101,6.5,6.5,80,0.00,,FEW012,0.00,VWS V14.01,2013-03-10 06:10:00,
2013-03-10 01:11:00,36.6,31.1,30.32,East,90,8.0,8.9,80,0.00,,FEW012,0.00,VWS V14.01,2013-03-10 06:11:00,
2013-03-10 01:12:00,36.7,31.2,30.32,East,86,7.2,9.9,80,0.00,,FEW012,0.00,VWS V14.01,2013-03-10 06:12:00,
2013-03-10 01:13:00,36.0,31.8,30.31,East,98,6.0,7.8,84,0.00,,FEW010,0.00,VWS V14.01,2013-03-10 06:13:00,
2013-03-10 01:14:00,36.7,31.1,30.32,SE,128,5.4,7.5,80,0.00,,FEW012,0.00,VWS V14.01,2013-03-10 06:14:00,
2013-03-10 01:15:00,36.7,31.1,30.32,SSE,162,3.7,7.9,80,0.00,,FEW012,0.00,VWS V14.01,2013-03-10 06:15:00,
2013-03-10 01:16:00,36.8,31.2,30.31,SE,134,3.7,8.6,80,0.00,,FEW012,0.00,VWS V14.01,2013-03-10 06:16:00,
2013-03-10 01:17:00,36.7,31.0,30.31,SE,136,6.2,6.9,80,0.00,,FEW012,0.00,VWS V14.01,2013-03-10 06:17:00,
2013-03-10 01:18:00,36.1,31.7,30.31,ESE,121,4.4,5.6,84,0.00,,FEW010,0.00,VWS V14.01,2013-03-10 06:18:00,
2013-03-10 01:19:00,36.8,31.0,30.32,SE,132,8.6,8.6,79,0.00,,FEW012,0.00,VWS V14.01,2013-03-10 06:19:00,
2013-03-10 01:20:00,36.9,31.1,30.31,East,94,8.2,12.7,79,0.00,,FEW012,0.00,VWS V14.01,2013-03-10 06:20:00,
2013-03-10 01:21:00,36.8,31.0,30.31,ENE,69,6.7,11.0,79,0.00,,FEW012,0.00,VWS V14.01,2013-03-10 06:21:00,
2013-03-10 01:22:00,36.7,30.8,30.31,ESE,120,6.7,7.0,79,0.00,,FEW012,0.00,VWS V14.01,2013-03-10 06:22:00,
2013-03-10 01:23:00,36.2,31.8,30.32,ESE,103,5.4,6.4,84,0.00,,FEW010,0.00,VWS V14.01,2013-03-10 06:23:00,
2013-03-10 01:24:00,36.8,30.9,30.31,SE,124,6.8,8.7,79,0.00,,FEW012,0.00,VWS V14.01,2013-03-10 06:24:00,
2013-03-10 01:25:00,36.8,30.8,30.31,ENE,62,6.5,7.3,79,0.00,,FEW012,0.00,VWS V14.01,2013-03-10 06:25:00,
2013-03-10 01:26:00,36.7,30.7,30.31,SE,131,8.3,8.3,78,0.00,,FEW012,0.00,VWS V14.01,2013-03-10 06:26:00,
2013-03-10 01:27:00,36.7,30.6,30.31,ESE,115,6.1,8.6,78,0.00,,FEW012,0.00,VWS V14.01,2013-03-10 06:27:00,
2013-03-10 01:28:00,36.4,31.9,30.32,SE,143,4.7,7.2,83,0.00,,FEW010,0.00,VWS V14.01,2013-03-10 06:28:00,
2013-03-10 01:29:00,36.8,30.5,30.31,East,84,6.5,12.7,78,0.00,,FEW012,0.00,VWS V14.01,2013-03-10 06:29:00,
2013-03-10 01:30:00,36.9,30.6,30.31,ESE,115,7.1,8.8,78,0.00,,FEW012,0.00,VWS V14.01,2013-03-10 06:30:00,
2013-03-10 01:31:00,36.8,30.5,30.31,ESE,120,5.6,7.8,78,0.00,,FEW012,0.00,VWS V14.01,2013-03-10 06:31:00,
2013-03-10 01:32:00,36.8,30.4,30.31,East,94,5.4,5.9,78,0.00,,FEW012,0.00,VWS V14.01,2013-03-10 06:32:00,
2013-03-10 01:33:00,36.4,31.6,30.32,ESE,108,4.3,5.0,82,0.00,,FEW010,0.00,VWS V14.01,2013-03-10 06:33:00,
2013-03-10 01:34:00,36.9,30.5,30.31,ESE,121,4.2,6.8,77,0.00,,FEW012,0.00,VWS V14.01,2013-03-10 06:34:00,
2013-03-10 01:35:00,37.0,30.5,30.31,East,87,3.6,5.5,77,0.00,,FEW012,0.00,VWS V14.01,2013-03-10 06:35:00,
2013-03-10 01:36:00,36.8,30.3,30.31,ESE,110,5.0,7.7,77,0.00,,FEW012,0.00,VWS V14.01,2013-03-10 06:36:00,
2013-03-10 01:37:00,36.9,30.5,30.31,ESE,104,3.5,6.6,77,0.00,,FEW012,0.00,VWS V14.01,2013-03-10 06:37:00,
2013-03-10 01:38:00,36.5,31.6,30.31,SE,127,7.0,9.1,82,0.00,,FEW010,0.00,VWS V14.01,2013-03-10 06:38:00,
2013-03-10 01:39:00,36.9,30.4,30.31,ESE,103,4.5,6.1,77,0.00,,FEW012,0.00,VWS V14.01,2013-03-10 06:39:00,
2013-03-10 01:40:00,36.9,30.4,30.31,SE,125,5.9,8.2,77,0.00,,FEW012,0.00,VWS V14.01,2013-03-10 06:40:00,
2013-03-10 01:41:00,36.8,30.5,30.31,ESE,117,6.6,6.6,78,0.00,,FEW012,0.00,VWS V14.01,2013-03-10 06:41:00,
2013-03-10 01:42:00,36.9,30.6,30.31,East,83,6.8,7.3,78,0.00,,FEW012,0.00,VWS V14.01,2013-03-10 06:42:00,
2013-03-10 01:43:00,36.6,31.5,30.32,SE,141,5.0,7.3,82,0.00,,FEW010,0.00,VWS V14.01,2013-03-10 06:43:00,
2013-03-10 01:44:00,36.8,30.5,30.31,SSE,166,2.0,7.1,78,0.00,,FEW012,0.00,VWS V14.01,2013-03-10 06:44:00,
2013-03-10 01:45:00,36.9,30.6,30.31,ESE,107,7.0,7.1,78,0.00,,FEW012,0.00,VWS V14.01,2013-03-10 06:45:00,
2013-03-10 01:46:00,36.9,30.6,30.31,ESE,122,7.4,9.2,78,0.00,,FEW012,0.00,VWS V14.01,2013-03-10 06:46:00,
2013-03-10 01:47:00,36.8,30.5,30.31,ESE,114,6.2,9.2,78,0.00,,FEW012,0.00,VWS V14.01,2013-03-10 06:47:00,
2013-03-10 01:48:00,36.6,31.3,30.32,East,89,3.9,5.7,81,0.00,,FEW010,0.00,VWS V14.01,2013-03-10 06:48:00,
2013-03-10 01:49:00,36.9,30.6,30.31,ESE,108,7.3,10.9,78,0.00,,BKN023,0.00,VWS V14.01,2013-03-10 06:49:00,
2013-03-10 01:50:00,36.8,30.5,30.31,East,80,2.9,7.5,78,0.00,,BKN023,0.00,VWS V14.01,2013-03-10 06:50:00,
2013-03-10 01:51:00,36.9,30.5,30.31,ENE,72,5.4,6.0,78,0.00,,BKN023,0.00,VWS V14.01,2013-03-10 06:51:00,
2013-03-10 01:52:00,36.9,30.5,30.31,ESE,110,6.8,8.2,78,0.00,,BKN023,0.00,VWS V14.01,2013-03-10 06:52:00,
2013-03-10 01:53:00,36.5,31.1,30.32,SE,143,6.9,8.5,80,0.00,,FEW010,0.00,VWS V14.01,2013-03-10 06:53:00,
2013-03-10 01:54:00,36.9,30.5,30.31,East,96,7.2,7.2,78,0.00,,BKN023,0.00,VWS V14.01,2013-03-10 06:54:00,
2013-03-10 01:55:00,36.9,30.5,30.31,East,100,3.7,8.7,78,0.00,,BKN023,0.00,VWS V14.01,2013-03-10 06:55:00,
2013-03-10 01:56:00,36.8,30.4,30.31,ENE,58,3.5,6.4,78,0.00,,BKN023,0.00,VWS V14.01,2013-03-10 06:56:00,
2013-03-10 01:58:00,36.6,31.1,30.32,ESE,105,5.3,5.5,80,0.00,,FEW010,0.00,VWS V14.01,2013-03-10 06:58:00,
2013-03-10 03:00:00,36.9,30.7,30.31,East,93,2.0,5.3,78,0.00,,BKN023,0.00,VWS V14.01,2013-03-10 07:00:00,
2013-03-10 03:01:00,36.9,30.8,30.31,SE,131,4.0,5.7,78,0.00,,BKN023,0.00,VWS V14.01,2013-03-10 07:01:00,
2013-03-10 03:02:00,36.8,30.7,30.31,East,83,3.9,5.1,78,0.00,,BKN023,0.00,VWS V14.01,2013-03-10 07:02:00,
2013-03-10 03:03:00,36.8,30.8,30.31,SE,124,7.7,7.9,78,0.00,,BKN023,0.00,VWS V14.01,2013-03-10 07:03:00,
2013-03-10 03:05:00,36.8,30.8,30.31,ESE,107,4.7,6.0,78,0.00,,BKN023,0.00,VWS V14.01,2013-03-10 07:05:00,
2013-03-10 03:06:00,36.9,30.9,30.31,ESE,104,4.5,6.4,79,0.00,,BKN023,0.00,VWS V14.01,2013-03-10 07:06:00,
2013-03-10 03:07:00,36.8,30.9,30.31,East,82,5.0,5.2,79,0.00,,BKN023,0.00,VWS V14.01,2013-03-10 07:07:00,
2013-03-10 03:10:00,36.8,30.8,30.31,ENE,69,4.4,5.4,79,0.00,,BKN023,0.00,VWS V14.01,2013-03-10 07:10:00,
2013-03-10 03:12:00,36.9,30.9,30.31,SE,127,4.2,5.9,79,0.00,,BKN023,0.00,VWS V14.01,2013-03-10 07:12:00,
2013-03-10 03:13:00,36.9,30.9,30.31,East,91,6.3,6.4,79,0.00,,BKN023,0.00,VWS V14.01,2013-03-10 07:13:00,
2013-03-10 03:14:00,36.9,30.9,30.31,ESE,114,4.3,7.2,79,0.00,,BKN023,0.00,VWS V14.01,2013-03-10 07:14:00,
2013-03-10 03:15:00,36.9,30.9,30.31,ESE,117,2.7,4.9,79,0.00,,BKN023,0.00,VWS V14.01,2013-03-10 07:15:00,
2013-03-10 03:16:00,36.9,30.9,30.32,SE,129,3.4,4.8,79,0.00,,BKN023,0.00,VWS V14.01,2013-03-10 07:16:00,
2013-03-10 03:17:00,36.9,30.9,30.32,East,87,5.7,5.9,79,0.00,,BKN023,0.00,VWS V14.01,2013-03-10 07:17:00,
2013-03-10 03:18:00,36.9,30.9,30.32,ESE,115,3.6,6.2,79,0.00,,BKN023,0.00,VWS V14.01,2013-03-10 07:18:00,
2013-03-10 03:19:00,36.9,30.9,30.32,East,89,4.7,4.7,79,0.00,,BKN023,0.00,VWS V14.01,2013-03-10 07:19:00,
2013-03-10 03:20:00,36.9,30.9,30.32,East,94,5.0,5.0,79,0.00,,BKN023,0.00,VWS V14.01,2013-03-10 07:20:00,
2013-03-10 03:23:00,36.9,30.9,30.32,ESE,115,4.7,4.7,79,0.00,,BKN023,0.00,VWS V14.01,2013-03-10 07:23:00,
2013-03-10 03:27:00,36.9,30.9,30.32,ESE,120,4.7,5.5,79,0.00,,BKN023,0.00,VWS V14.01,2013-03-10 07:27:00,
2013-03-10 03:32:00,37.0,31.0,30.32,East,101,4.7,5.9,79,0.00,,BKN023,0.00,VWS V14.01,2013-03-10 07:32:00,
2013-03-10 03:33:00,36.9,30.9,30.32,SE,136,4.4,7.5,79,0.00,,BKN023,0.00,VWS V14.01,2013-03-10 07:33:00,
2013-03-10 03:35:00,36.9,30.9,30.32,ENE,68,4.5,4.9,79,0.00,,BKN023,0.00,VWS V14.01,2013-03-10 07:35:00,
2013-03-10 03:44:00,37.1,30.8,30.32,ENE,70,4.6,4.6,78,0.00,,BKN023,0.00,VWS V14.01,2013-03-10 07:44:00,
2013-03-10 03:51:00,36.8,30.2,30.32,ESE,115,6.2,7.6,77,0.00,,BKN023,0.00,VWS V14.01,2013-03-10 07:51:00,
2013-03-10 03:53:00,36.9,30.3,30.32,East,97,5.2,6.9,77,0.00,,BKN023,0.00,VWS V14.01,2013-03-10 07:53:00,
2013-03-10 03:54:00,36.8,30.5,30.31,ENE,65,2.0,3.8,78,0.00,,BKN023,0.00,VWS V14.01,2013-03-10 07:54:00,
2013-03-10 04:01:00,36.9,30.9,30.31,ENE,76,2.7,7.7,79,0.00,,BKN023,0.00,VWS V14.01,2013-03-10 08:01:00,
2013-03-10 04:06:00,36.8,30.8,30.31,ESE,112,4.7,5.9,79,0.00,,BKN023,0.00,VWS V14.01,2013-03-10 08:06:00,
2013-03-10 04:18:00,37.0,31.0,30.32,ESE,107,4.1,5.2,79,0.00,,BKN023,0.00,VWS V14.01,2013-03-10 08:18:00,
2013-03-10 04:23:00,36.9,30.9,30.32,ESE,112,5.2,6.8,79,0.00,,BKN023,0.00,VWS V14.01,2013-03-10 08:23:00,
2013-03-10 04:28:00,36.9,30.9,30.32,ESE,103,5.2,6.8,79,0.00,,BKN023,0.00,VWS V14.01,2013-03-10 08:28:00,
2013-03-10 04:33:00,37.0,31.0,30.32,East,80,4.2,5.5,79,0.00,,BKN023,0.00,VWS V14.01,2013-03-10 08:33:00,
2013-03-10 04:38:00,36.9,30.8,30.32,East,84,4.1,6.2,78,0.00,,BKN023,0.00,VWS V14.01,2013-03-10 08:38:00,
2013-03-10 04:43:00,36.9,30.5,30.32,ENE,75,6.4,6.6,78,0.00,,BKN023,0.00,VWS V14.01,2013-03-10 08:43:00,
2013-03-10 04:49:00,36.9,30.3,30.32,SE,135,5.5,6.8,77,0.00,,BKN023,0.00,VWS V14.01,2013-03-10 08:49:00,
2013-03-10 04:54:00,37.0,30.3,30.32,NE,39,5.2,7.2,76,0.00,,SCT023,0.00,VWS V14.01,2013-03-10 08:54:00,
2013-03-10 04:59:00,37.0,30.1,30.32,SE,134,4.2,5.7,76,0.00,,SCT023,0.00,VWS V14.01,2013-03-10 08:59:00,
2013-03-10 05:04:00,36.9,30.0,30.32,ESE,103,5.3,7.0,76,0.00,,SCT023,0.00,VWS V14.01,2013-03-10 09:04:00,
2013-03-10 05:09:00,36.9,30.0,30.33,SE,127,5.7,5.7,76,0.00,,SCT023,0.00,VWS V14.01,2013-03-10 09:09:00,
2013-03-10 05:14:00,36.9,30.0,30.33,East,91,3.8,8.2,76,0.00,,SCT023,0.00,VWS V14.01,2013-03-10 09:14:00,
2013-03-10 05:19:00,36.7,30.8,30.33,East,90,4.7,7.0,79,0.00,,SCT023,0.00,VWS V14.01,2013-03-10 09:19:00,
2013-03-10 05:24:00,36.4,31.2,30.33,East,83,4.2,6.8,81,0.00,,SCT023,0.00,VWS V14.01,2013-03-10 09:24:00,
2013-03-10 05:29:00,36.2,31.6,30.33,East,101,4.1,5.4,83,0.00,,SCT023,0.00,VWS V14.01,2013-03-10 09:29:00,
2013-03-10 05:34:00,35.9,31.7,30.33,East,83,4.1,5.5,85,0.00,,SCT023,0.00,VWS V14.01,2013-03-10 09:34:00,
2013-03-10 05:39:00,35.7,31.9,30.33,ENE,73,4.4,5.2,86,0.00,,SCT023,0.00,VWS V14.01,2013-03-10 09:39:00,
2013-03-10 05:44:00,35.6,32.2,30.33,ENE,72,2.0,2.0,87,0.00,,SCT023,0.00,VWS V14.01,2013-03-10 09:44:00,
2013-03-10 05:49:00,35.5,32.4,30.33,ENE,58,5.1,6.0,88,0.00,,SCT023,0.00,VWS V14.01,2013-03-10 09:49:00,
2013-03-10 05:54:00,35.4,32.5,30.33,ENE,62,2.0,2.0,89,0.00,,SCT023,0.00,VWS V14.01,2013-03-10 09:54:00,
2013-03-10 05:59:00,35.6,32.9,30.33,NE,51,4.9,8.0,90,0.00,,SCT023,0.00,VWS V14.01,2013-03-10 09:59:00,
2013-03-10 06:04:00,35.5,33.0,30.33,ESE,107,2.0,2.0,90,0.00,,SCT023,0.00,VWS V14.01,2013-03-10 10:04:00,
2013-03-10 06:09:00,35.6,33.2,30.33,ESE,107,2.0,2.0,91,0.00,,FEW022,0.00,VWS V14.01,2013-03-10 10:09:00,
2013-03-10 06:14:00,35.7,33.4,30.33,ESE,107,2.0,2.0,91,0.00,,FEW022,0.00,VWS V14.01,2013-03-10 10:14:00,
2013-03-10 06:19:00,35.8,33.5,30.33,ESE,107,2.0,2.0,91,0.00,,FEW022,0.00,VWS V14.01,2013-03-10 10:19:00,
2013-03-10 06:24:00,35.8,33.5,30.33,ESE,107,2.0,2.0,91,0.00,,FEW022,0.00,VWS V14.01,2013-03-10 10:24:00,
2013-03-10 06:29:00,35.8,33.5,30.33,ENE,70,2.0,4.1,91,0.00,,FEW022,0.00,VWS V14.01,2013-03-10 10:29:00,
2013-03-10 06:34:00,36.0,33.5,30.33,ENE,70,2.0,2.0,91,0.00,,FEW022,0.00,VWS V14.01,2013-03-10 10:34:00,
2013-03-10 06:39:00,36.0,33.4,30.33,East,97,4.5,7.1,90,0.00,,FEW022,0.00,VWS V14.01,2013-03-10 10:39:00,
2013-03-10 06:44:00,36.0,32.7,30.33,East,101,6.1,11.4,88,0.00,,FEW022,0.00,VWS V14.01,2013-03-10 10:44:00,
2013-03-10 06:49:00,36.1,32.0,30.33,SE,145,4.5,6.7,85,0.00,,FEW022,0.00,VWS V14.01,2013-03-10 10:49:00,
2013-03-10 06:54:00,36.2,31.5,30.33,ESE,104,6.2,7.8,83,0.00,,FEW022,0.00,VWS V14.01,2013-03-10 10:54:00,
2013-03-10 06:59:00,36.3,31.1,30.34,ESE,105,5.3,6.7,81,0.00,,FEW022,0.00,VWS V14.01,2013-03-10 10:59:00,
2013-03-10 07:04:00,36.4,30.9,30.34,ESE,108,5.5,6.7,80,0.00,,SCT022,0.00,VWS V14.01,2013-03-10 11:04:00,
2013-03-10 07:09:00,36.3,30.7,30.33,East,84,2.0,5.4,80,0.00,,SCT022,0.00,VWS V14.01,2013-03-10 11:09:00,
2013-03-10 07:14:00,36.4,30.7,30.34,SE,146,6.6,7.3,80,0.00,,SCT022,0.00,VWS V14.01,2013-03-10 11:14:00,
2013-03-10 07:19:00,36.4,30.6,30.33,ESE,107,6.0,9.5,79,0.00,,SCT022,0.00,VWS V14.01,2013-03-10 11:19:00,
2013-03-10 07:24:00,36.5,30.2,30.34,SE,138,5.5,8.9,78,0.00,,OVC022,0.00,VWS V14.01,2013-03-10 11:24:00,
2013-03-10 07:29:00,36.4,29.9,30.34,ESE,107,6.0,6.5,77,0.00,,OVC022,0.00,VWS V14.01,2013-03-10 11:29:00,
2013-03-10 07:34:00,36.5,29.9,30.34,SE,128,2.0,2.0,77,0.00,,OVC022,0.00,VWS V14.01,2013-03-10 11:34:00,
2013-03-10 07:39:00,36.3,29.5,30.34,SE,129,3.7,6.5,76,0.00,,OVC022,0.00,VWS V14.01,2013-03-10 11:39:00,
2013-03-10 07:44:00,36.4,29.5,30.34,SE,143,4.4,6.8,76,0.00,,OVC022,0.00,VWS V14.01,2013-03-10 11:44:00,
2013-03-10 07:49:00,36.5,29.6,30.34,ESE,104,6.5,8.6,76,0.00,,OVC022,0.00,VWS V14.01,2013-03-10 11:49:00,
2013-03-10 07:54:00,36.5,29.6,30.35,ESE,114,5.8,6.4,76,0.00,,OVC022,0.00,VWS V14.01,2013-03-10 11:54:00,
2013-03-10 07:59:00,36.6,29.8,30.35,ESE,108,5.2,6.7,76,0.00,,OVC022,0.00,VWS V14.01,2013-03-10 11:59:00,
2013-03-10 08:04:00,36.8,30.0,30.35,East,87,5.3,8.3,76,0.00,,OVC022,0.00,VWS V14.01,2013-03-10 12:04:00,
2013-03-10 08:09:00,36.8,29.9,30.35,South,174,3.7,7.6,76,0.00,,OVC022,0.00,VWS V14.01,2013-03-10 12:09:00,
2013-03-10 08:14:00,36.9,29.8,30.35,SE,134,5.4,7.0,75,0.00,,OVC022,0.00,VWS V14.01,2013-03-10 12:14:00,
2013-03-10 08:19:00,37.0,29.8,30.35,SE,136,5.5,6.6,75,0.00,,OVC022,0.00,VWS V14.01,2013-03-10 12:19:00,
2013-03-10 08:24:00,37.3,30.1,30.35,SE,138,5.8,5.8,75,0.00,,OVC022,0.00,VWS V14.01,2013-03-10 12:24:00,
2013-03-10 08:29:00,37.3,30.1,30.36,SE,141,6.4,8.5,75,0.00,,OVC022,0.00,VWS V14.01,2013-03-10 12:29:00,
2013-03-10 08:34:00,37.4,30.0,30.36,SSE,150,5.3,7.6,74,0.00,,OVC022,0.00,VWS V14.01,2013-03-10 12:34:00,
2013-03-10 08:39:00,37.5,29.8,30.36,SE,136,5.6,7.0,73,0.00,,OVC022,0.00,VWS V14.01,2013-03-10 12:39:00,
2013-03-10 08:44:00,37.4,29.4,30.36,ENE,65,4.9,6.2,72,0.00,,OVC022,0.00,VWS V14.01,2013-03-10 12:44:00,
2013-03-10 08:49:00,37.3,29.2,30.36,ESE,107,4.5,5.7,72,0.00,,OVC022,0.00,VWS V14.01,2013-03-10 12:49:00,
2013-03-10 08:54:00,37.3,29.1,30.36,East,101,6.3,7.7,72,0.00,,OVC022,0.00,VWS V14.01,2013-03-10 12:54:00,
2013-03-10 08:59:00,37.4,29.4,30.36,East,98,3.5,6.9,72,0.00,,OVC022,0.00,VWS V14.01,2013-03-10 12:59:00,
2013-03-10 09:04:00,37.5,29.4,30.36,ESE,120,6.3,8.2,72,0.00,,OVC022,0.00,VWS V14.01,2013-03-10 13:04:00,
2013-03-10 09:09:00,37.5,29.3,30.36,East,96,5.5,6.4,72,0.00,,OVC022,0.00,VWS V14.01,2013-03-10 13:09:00,
2013-03-10 09:14:00,37.5,29.5,30.37,SE,124,3.2,6.4,73,0.00,,OVC022,0.00,VWS V14.01,2013-03-10 13:14:00,
2013-03-10 09:19:00,37.6,29.9,30.37,SSE,159,5.6,7.2,73,0.00,,OVC022,0.00,VWS V14.01,2013-03-10 13:19:00,
2013-03-10 09:24:00,37.9,30.1,30.37,South,187,5.6,7.8,73,0.00,,OVC022,0.00,VWS V14.01,2013-03-10 13:24:00,
2013-03-10 09:29:00,37.9,29.9,30.37,South,184,2.0,3.8,72,0.00,,OVC022,0.00,VWS V14.01,2013-03-10 13:29:00,
2013-03-10 09:34:00,38.0,30.0,30.37,ESE,107,6.7,7.3,72,0.00,,OVC022,0.00,VWS V14.01,2013-03-10 13:34:00,
2013-03-10 09:39:00,38.0,29.4,30.37,ESE,111,3.8,5.4,71,0.00,,OVC022,0.00,VWS V14.01,2013-03-10 13:39:00,
2013-03-10 09:44:00,38.2,29.8,30.36,SE,128,5.9,9.2,71,0.00,,OVC022,0.00,VWS V14.01,2013-03-10 13:44:00,
2013-03-10 09:49:00,38.4,29.9,30.37,SE,127,6.0,10.0,71,0.00,,OVC022,0.00,VWS V14.01,2013-03-10 13:49:00,
2013-03-10 09:54:00,38.5,29.9,30.37,SE,141,5.7,7.8,71,0.00,,OVC022,0.00,VWS V14.01,2013-03-10 13:54:00,
2013-03-10 09:59:00,38.6,29.6,30.37,South,180,7.2,7.9,70,0.00,,OVC022,0.00,VWS V14.01,2013-03-10 13:59:00,
2013-03-10 10:04:00,38.6,29.4,30.37,SE,131,6.9,7.8,69,0.00,,OVC022,0.00,VWS V14.01,2013-03-10 14:04:00,
2013-03-10 10:09:00,38.6,29.3,30.37,East,96,4.7,6.3,69,0.00,,OVC022,0.00,VWS V14.01,2013-03-10 14:09:00,
2013-03-10 10:14:00,38.8,29.2,30.37,South,176,3.2,6.7,68,0.00,,OVC022,0.00,VWS V14.01,2013-03-10 14:14:00,
2013-03-10 10:19:00,38.8,28.7,30.37,ESE,117,3.7,5.5,67,0.00,,OVC022,0.00,VWS V14.01,2013-03-10 14:19:00,
2013-03-10 10:24:00,38.9,28.5,30.37,ENE,58,5.9,6.2,66,0.00,,OVC022,0.00,VWS V14.01,2013-03-10 14:24:00,
2013-03-10 10:29:00,38.9,28.6,30.37,ENE,68,6.0,7.7,66,0.00,,OVC022,0.00,VWS V14.01,2013-03-10 14:29:00,
2013-03-10 10:34:00,38.9,28.4,30.37,East,93,5.2,6.2,66,0.00,,OVC022,0.00,VWS V14.01,2013-03-10 14:34:00,
2013-03-10 10:39:00,39.2,28.9,30.37,ESE,117,5.4,8.3,66,0.00,,OVC022,0.00,VWS V14.01,2013-03-10 14:39:00,
2013-03-10 10:44:00,39.3,28.9,30.37,ENE,76,5.8,6.0,66,0.00,,OVC022,0.00,VWS V14.01,2013-03-10 14:44:00,
2013-03-10 10:49:00,39.6,28.9,30.37,SSW,193,2.0,7.2,65,0.00,,OVC022,0.00,VWS V14.01,2013-03-10 14:49:00,
2013-03-10 10:54:00,39.9,29.4,30.37,ESE,107,3.9,7.2,66,0.00,,OVC022,0.00,VWS V14.01,2013-03-10 14:54:00,
2013-03-10 10:59:00,40.1,29.2,30.37,SE,132,5.6,8.6,65,0.00,,OVC022,0.00,VWS V14.01,2013-03-10 14:59:00,
2013-03-10 11:04:00,40.3,29.1,30.37,ESE,107,2.0,5.9,64,0.00,,OVC022,0.00,VWS V14.01,2013-03-10 15:04:00,
2013-03-10 11:09:00,40.5,29.2,30.38,NE,51,2.0,5.4,64,0.00,,OVC022,0.00,VWS V14.01,2013-03-10 15:09:00,
2013-03-10 11:14:00,40.8,29.2,30.38,ESE,104,3.1,4.9,63,0.00,,OVC022,0.00,VWS V14.01,2013-03-10 15:14:00,
2013-03-10 11:19:00,40.8,28.6,30.38,ESE,104,2.9,4.7,62,0.00,,OVC022,0.00,VWS V14.01,2013-03-10 15:19:00,
2013-03-10 11:24:00,40.7,28.5,30.37,ENE,69,3.6,7.1,62,0.00,,OVC022,0.00,VWS V14.01,2013-03-10 15:24:00,
2013-03-10 11:29:00,40.7,28.8,30.37,East,96,3.8,5.3,62,0.00,,OVC022,0.00,VWS V14.01,2013-03-10 15:29:00,
2013-03-10 11:34:00,40.3,27.7,30.38,SE,141,4.1,5.4,60,0.00,,OVC022,0.00,VWS V14.01,2013-03-10 15:34:00,
2013-03-10 11:39:00,40.4,28.6,30.38,ESE,108,5.4,5.4,62,0.00,,OVC022,0.00,VWS V14.01,2013-03-10 15:39:00,
2013-03-10 11:44:00,40.5,28.2,30.38,NNE,13,4.5,6.2,61,0.00,,OVC022,0.00,VWS V14.01,2013-03-10 15:44:00,
2013-03-10 11:49:00,40.4,28.2,30.38,ENE,58,5.4,6.2,62,0.00,,OVC022,0.00,VWS V14.01,2013-03-10 15:49:00,
2013-03-10 11:54:00,40.6,28.3,30.37,NE,38,2.0,2.0,61,0.00,,OVC022,0.00,VWS V14.01,2013-03-10 15:54:00,
2013-03-10 11:59:00,40.9,28.9,30.38,SSE,165,7.5,7.5,62,0.00,,OVC022,0.00,VWS V14.01,2013-03-10 15:59:00,
2013-03-10 12:04:00,41.7,29.5,30.38,ESE,107,7.1,7.1,62,0.00,,OVC020,0.00,VWS V14.01,2013-03-10 16:04:00,
2013-03-10 12:09:00,41.7,28.5,30.37,ESE,111,2.3,4.3,59,0.00,,OVC020,0.00,VWS V14.01,2013-03-10 16:09:00,
2013-03-10 12:14:00,41.4,28.2,30.37,ESE,115,3.8,5.9,59,0.00,,OVC020,0.00,VWS V14.01,2013-03-10 16:14:00,
2013-03-10 12:19:00,40.8,27.8,30.37,SSE,148,3.6,4.1,59,0.00,,OVC020,0.00,VWS V14.01,2013-03-10 16:19:00,
2013-03-10 12:24:00,40.4,27.8,30.37,East,101,6.8,7.0,60,0.00,,OVC020,0.00,VWS V14.01,2013-03-10 16:24:00,
2013-03-10 12:29:00,40.4,28.0,30.37,East,98,6.8,7.0,61,0.00,,OVC020,0.00,VWS V14.01,2013-03-10 16:29:00,
2013-03-10 12:34:00,40.3,27.8,30.37,SSE,166,6.0,7.2,61,0.00,,OVC020,0.00,VWS V14.01,2013-03-10 16:34:00,
2013-03-10 12:39:00,40.9,28.4,30.37,NE,49,5.4,7.0,61,0.00,,OVC020,0.00,VWS V14.01,2013-03-10 16:39:00,
2013-03-10 12:44:00,40.8,27.4,30.37,ENE,75,4.8,6.2,58,0.00,,OVC020,0.00,VWS V14.01,2013-03-10 16:44:00,
2013-03-10 12:49:00,40.9,28.2,30.37,ESE,122,6.7,6.7,60,0.00,,OVC020,0.00,VWS V14.01,2013-03-10 16:49:00,
2013-03-10 12:54:00,41.1,27.9,30.37,ESE,121,5.6,5.6,59,0.00,,OVC020,0.00,VWS V14.01,2013-03-10 16:54:00,
2013-03-10 12:59:00,41.3,28.0,30.37,ESE,103,5.7,7.9,59,0.00,,OVC020,0.00,VWS V14.01,2013-03-10 16:59:00,
2013-03-10 13:04:00,41.6,28.2,30.36,SSE,155,5.8,6.6,59,0.00,,OVC022,0.00,VWS V14.01,2013-03-10 17:04:00,
2013-03-10 13:09:00,42.2,27.9,30.36,SE,124,2.0,2.0,57,0.00,,OVC022,0.00,VWS V14.01,2013-03-10 17:09:00,
2013-03-10 13:14:00,42.1,27.4,30.36,South,169,5.5,7.7,56,0.00,,OVC022,0.00,VWS V14.01,2013-03-10 17:14:00,
2013-03-10 13:19:00,42.5,28.1,30.36,ESE,120,6.0,6.5,56,0.00,,OVC022,0.00,VWS V14.01,2013-03-10 17:19:00,
2013-03-10 13:24:00,42.5,27.8,30.36,SSW,202,5.7,7.3,56,0.00,,OVC022,0.00,VWS V14.01,2013-03-10 17:24:00,
2013-03-10 13:29:00,43.1,28.7,30.36,ESE,104,6.1,6.9,56,0.00,,OVC022,0.00,VWS V14.01,2013-03-10 17:29:00,
2013-03-10 13:34:00,43.0,27.6,30.36,East,82,3.8,6.1,54,0.00,,OVC022,0.00,VWS V14.01,2013-03-10 17:34:00,
2013-03-10 13:39:00,42.9,27.7,30.36,SE,134,2.0,2.4,55,0.00,,OVC022,0.00,VWS V14.01,2013-03-10 17:39:00,
2013-03-10 13:45:00,43.1,27.4,30.35,SW,215,6.8,8.0,54,0.00,,OVC022,0.00,VWS V14.01,2013-03-10 17:45:00,
2013-03-10 13:50:00,42.9,27.5,30.35,ESE,122,5.0,6.1,54,0.00,,OVC022,0.00,VWS V14.01,2013-03-10 17:50:00,
2013-03-10 13:55:00,42.9,27.3,30.35,East,80,2.8,3.0,54,0.00,,OVC022,0.00,VWS V14.01,2013-03-10 17:55:00,
2013-03-10 14:00:00,42.7,26.5,30.35,South,179,5.5,7.3,52,0.00,,OVC022,0.00,VWS V14.01,2013-03-10 18:00:00,
2013-03-10 14:06:00,42.6,27.4,30.34,South,184,2.0,2.0,55,0.00,,BKN022,0.00,VWS V14.01,2013-03-10 18:06:00,
2013-03-10 14:11:00,43.2,28.4,30.34,SSE,167,6.6,7.7,56,0.00,,BKN022,0.00,VWS V14.01,2013-03-10 18:11:00,
2013-03-10 14:16:00,43.5,27.8,30.34,East,90,5.4,5.4,54,0.00,,BKN022,0.00,VWS V14.01,2013-03-10 18:16:00,
2013-03-10 14:21:00,43.8,28.4,30.34,South,177,5.1,5.2,54,0.00,,BKN022,0.00,VWS V14.01,2013-03-10 18:21:00,
2013-03-10 14:27:00,44.2,28.2,30.34,ESE,114,4.5,6.1,53,0.00,,BKN022,0.00,VWS V14.01,2013-03-10 18:27:00,
2013-03-10 14:33:00,43.6,26.9,30.34,NNE,20,6.2,6.4,51,0.00,,BKN022,0.00,VWS V14.01,2013-03-10 18:33:00,
2013-03-10 14:38:00,43.3,27.6,30.34,SE,143,4.1,5.4,54,0.00,,BKN022,0.00,VWS V14.01,2013-03-10 18:38:00,
2013-03-10 14:44:00,43.6,28.2,30.34,ESE,107,5.2,5.8,54,0.00,,BKN022,0.00,VWS V14.01,2013-03-10 18:44:00,
2013-03-10 14:49:00,43.9,28.0,30.34,SSE,165,3.7,5.4,53,0.00,,BKN022,0.00,VWS V14.01,2013-03-10 18:49:00,
2013-03-10 14:54:00,44.0,27.9,30.34,NE,38,3.9,6.8,53,0.00,,BKN022,0.00,VWS V14.01,2013-03-10 18:54:00,
2013-03-10 14:59:00,43.7,27.1,30.34,East,83,3.9,5.1,52,0.00,,BKN022,0.00,VWS V14.01,2013-03-10 18:59:00,
2013-03-10 15:05:00,43.5,27.9,30.34,SSE,166,3.7,4.1,54,0.00,,BKN220,0.00,VWS V14.01,2013-03-10 19:05:00,
2013-03-10 15:11:00,43.0,26.5,30.34,East,87,4.4,5.1,52,0.00,,SCT220,0.00,VWS V14.01,2013-03-10 19:11:00,
2013-03-10 15:16:00,42.8,27.5,30.34,South,181,5.6,6.3,54,0.00,,SCT220,0.00,VWS V14.01,2013-03-10 19:16:00,
2013-03-10 15:22:00,43.2,27.8,30.33,ESE,114,4.0,4.4,54,0.00,,SCT220,0.00,VWS V14.01,2013-03-10 19:22:00,
2013-03-10 15:27:00,43.1,27.5,30.33,South,174,2.9,4.2,54,0.00,,SCT220,0.00,VWS V14.01,2013-03-10 19:27:00,
2013-03-10 15:32:00,43.3,27.8,30.33,SE,131,3.8,4.6,54,0.00,,SCT220,0.00,VWS V14.01,2013-03-10 19:32:00,
2013-03-10 15:37:00,43.2,27.4,30.33,SE,125,2.0,3.2,53,0.00,,SCT220,0.00,VWS V14.01,2013-03-10 19:37:00,
2013-03-10 15:43:00,43.3,28.2,30.33,South,186,4.1,5.8,55,0.00,,SCT220,0.00,VWS V14.01,2013-03-10 19:43:00,
2013-03-10 15:48:00,43.4,28.0,30.33,SSE,166,6.9,7.4,54,0.00,,SCT220,0.00,VWS V14.01,2013-03-10 19:48:00,
2013-03-10 15:54:00,43.6,28.0,30.33,South,172,5.4,7.4,54,0.00,,SCT220,0.00,VWS V14.01,2013-03-10 19:54:00,
2013-03-10 16:00:00,43.2,27.6,30.33,South,172,5.6,6.8,54,0.00,,SCT220,0.00,VWS V14.01,2013-03-10 20:00:00,
2013-03-10 16:05:00,43.0,27.2,30.33,West,270,2.0,4.5,53,0.00,,BKN250,0.00,VWS V14.01,2013-03-10 20:05:00,
2013-03-10 16:10:00,42.9,27.3,30.33,NNE,21,2.0,2.0,54,0.00,,BKN250,0.00,VWS V14.01,2013-03-10 20:10:00,
2013-03-10 16:15:00,42.7,26.6,30.33,ENE,59,2.7,2.8,53,0.00,,BKN019,0.00,VWS V14.01,2013-03-10 20:15:00,
2013-03-10 16:21:00,42.4,27.1,30.33,SSW,193,4.1,5.7,54,0.00,,BKN019,0.00,VWS V14.01,2013-03-10 20:21:00,
2013-03-10 16:27:00,42.6,27.8,30.33,South,176,6.4,8.0,56,0.00,,BKN019,0.00,VWS V14.01,2013-03-10 20:27:00,
2013-03-10 16:32:00,42.7,27.7,30.33,SSW,194,3.9,4.7,55,0.00,,BKN019,0.00,VWS V14.01,2013-03-10 20:32:00,
2013-03-10 16:37:00,42.7,27.8,30.33,WSW,238,4.7,7.8,55,0.00,,BKN019,0.00,VWS V14.01,2013-03-10 20:37:00,
2013-03-10 16:42:00,42.5,28.0,30.33,SSE,160,3.6,3.6,56,0.00,,BKN019,0.00,VWS V14.01,2013-03-10 20:42:00,
2013-03-10 16:48:00,42.5,27.8,30.33,South,186,5.7,6.7,56,0.00,,BKN019,0.00,VWS V14.01,2013-03-10 20:48:00,
2013-03-10 16:53:00,42.5,27.9,30.33,South,181,5.5,6.0,56,0.00,,SCT220,0.00,VWS V14.01,2013-03-10 20:53:00,
2013-03-10 16:59:00,42.3,27.6,30.33,SSW,195,5.1,7.0,56,0.00,,SCT220,0.00,VWS V14.01,2013-03-10 20:59:00,
2013-03-10 17:04:00,42.1,27.5,30.33,SW,215,2.0,2.4,56,0.00,,SCT220,0.00,VWS V14.01,2013-03-10 21:04:00,
2013-03-10 17:09:00,42.0,27.6,30.33,South,173,5.2,6.5,56,0.00,,SCT220,0.00,VWS V14.01,2013-03-10 21:09:00,
2013-03-10 17:14:00,42.2,28.1,30.33,WSW,245,2.0,2.0,57,0.00,,SCT220,0.00,VWS V14.01,2013-03-10 21:14:00,
2013-03-10 17:19:00,42.2,28.0,30.33,WSW,246,2.0,3.5,57,0.00,,SCT220,0.00,VWS V14.01,2013-03-10 21:19:00,
2013-03-10 17:24:00,42.2,27.6,30.33,WSW,246,2.0,2.0,56,0.00,,SCT220,0.00,VWS V14.01,2013-03-10 21:24:00,
2013-03-10 17:29:00,41.8,27.3,30.33,South,190,5.2,5.6,56,0.00,,SCT220,0.00,VWS V14.01,2013-03-10 21:29:00,
2013-03-10 17:35:00,41.5,27.3,30.33,South,188,2.9,4.4,57,0.00,,SCT220,0.00,VWS V14.01,2013-03-10 21:35:00,
2013-03-10 17:40:00,41.3,27.5,30.33,SSW,198,2.0,2.0,58,0.00,,SCT220,0.00,VWS V14.01,2013-03-10 21:40:00,
2013-03-10 17:45:00,41.0,27.3,30.32,South,180,2.0,2.0,58,0.00,,SCT220,0.00,VWS V14.01,2013-03-10 21:45:00,
2013-03-10 17:50:00,40.7,27.5,30.32,WSW,246,4.2,5.9,59,0.00,,SCT220,0.00,VWS V14.01,2013-03-10 21:50:00,
2013-03-10 17:55:00,40.3,27.2,30.32,East,94,4.5,5.2,59,0.00,,SCT220,0.00,VWS V14.01,2013-03-10 21:55:00,
2013-03-10 18:00:00,40.1,27.3,30.32,ESE,103,2.9,5.7,60,0.00,,SCT220,0.00,VWS V14.01,2013-03-10 22:00:00,
2013-03-10 18:05:00,39.8,27.3,30.33,South,187,4.2,5.4,61,0.00,,SCT250,0.00,VWS V14.01,2013-03-10 22:05:00,
2013-03-10 18:11:00,39.8,27.7,30.32,South,174,2.0,2.9,62,0.00,,SCT250,0.00,VWS V14.01,2013-03-10 22:11:00,
2013-03-10 18:16:00,39.5,27.4,30.32,SE,141,4.7,6.2,62,0.00,,SCT250,0.00,VWS V14.01,2013-03-10 22:16:00,
2013-03-10 18:21:00,39.4,27.7,30.32,South,187,5.3,5.4,62,0.00,,SCT250,0.00,VWS V14.01,2013-03-10 22:21:00,
2013-03-10 18:27:00,39.1,27.8,30.32,South,170,3.3,4.2,64,0.00,,SCT250,0.00,VWS V14.01,2013-03-10 22:27:00,
2013-03-10 18:33:00,38.9,27.9,30.32,South,170,2.0,2.0,64,0.00,,SCT250,0.00,VWS V14.01,2013-03-10 22:33:00,
2013-03-10 18:38:00,38.6,27.9,30.33,South,188,6.7,6.7,65,0.00,,SCT250,0.00,VWS V14.01,2013-03-10 22:38:00,
2013-03-10 18:43:00,38.2,27.8,30.33,SSE,153,4.9,5.5,66,0.00,,SCT250,0.00,VWS V14.01,2013-03-10 22:43:00,
2013-03-10 18:49:00,38.1,28.0,30.33,South,184,4.1,5.7,67,0.00,,SCT250,0.00,VWS V14.01,2013-03-10 22:49:00,
2013-03-10 18:54:00,37.8,28.0,30.33,SE,124,2.0,2.0,67,0.00,,SCT250,0.00,VWS V14.01,2013-03-10 22:54:00,
2013-03-10 19:00:00,37.6,28.1,30.33,SE,124,2.0,2.0,68,0.00,,SCT250,0.00,VWS V14.01,2013-03-10 23:00:00,
2013-03-10 19:06:00,37.4,28.1,30.33,SE,124,2.0,2.0,69,0.00,,FEW120,0.00,VWS V14.01,2013-03-10 23:06:00,
2013-03-10 19:11:00,37.0,28.0,30.34,SE,124,2.0,2.0,70,0.00,,FEW120,0.00,VWS V14.01,2013-03-10 23:11:00,
2013-03-10 19:17:00,36.8,28.1,30.33,SE,124,2.0,2.0,70,0.00,,FEW120,0.00,VWS V14.01,2013-03-10 23:17:00,
2013-03-10 19:23:00,36.7,28.4,30.33,SE,124,2.0,2.0,72,0.00,,FEW120,0.00,VWS V14.01,2013-03-10 23:23:00,
2013-03-10 19:28:00,36.4,28.5,30.33,SE,124,2.0,2.0,73,0.00,,FEW120,0.00,VWS V14.01,2013-03-10 23:28:00,
2013-03-10 19:34:00,36.2,28.6,30.33,SE,124,2.0,2.0,74,0.00,,FEW120,0.00,VWS V14.01,2013-03-10 23:34:00,
2013-03-10 19:40:00,36.1,28.8,30.33,SE,124,2.0,2.0,74,0.00,,FEW120,0.00,VWS V14.01,2013-03-10 23:40:00,
2013-03-10 19:45:00,35.7,28.6,30.33,SE,124,2.0,2.0,75,0.00,,FEW120,0.00,VWS V14.01,2013-03-10 23:45:00,
2013-03-10 19:50:00,35.5,28.5,30.33,SE,124,2.0,2.0,75,0.00,,FEW120,0.00,VWS V14.01,2013-03-10 23:50:00,
2013-03-10 19:55:00,35.3,28.6,30.33,SE,124,2.0,2.0,76,0.00,,FEW120,0.00,VWS V14.01,2013-03-10 23:55:00,
2013-03-10 20:00:00,35.1,28.6,30.33,SE,124,2.0,2.0,77,0.00,,FEW120,0.00,VWS V14.01,2013-03-11 00:00:00,
2013-03-10 20:06:00,35.0,28.6,30.33,SE,124,2.0,2.0,77,0.00,,BKN200,0.00,VWS V14.01,2013-03-11 00:06:00,
2013-03-10 20:11:00,34.8,28.7,30.33,SE,124,2.0,2.0,78,0.00,,BKN200,0.00,VWS V14.01,2013-03-11 00:11:00,
2013-03-10 20:16:00,34.8,29.0,30.33,SE,124,2.0,2.0,79,0.00,,BKN200,0.00,VWS V14.01,2013-03-11 00:16:00,
2013-03-10 20:22:00,34.7,29.0,30.33,SE,124,2.0,2.0,80,0.00,,BKN200,0.00,VWS V14.01,2013-03-11 00:22:00,
2013-03-10 20:27:00,34.7,29.1,30.33,SE,124,2.0,2.0,80,0.00,,BKN200,0.00,VWS V14.01,2013-03-11 00:27:00,
2013-03-10 20:32:00,34.6,29.0,30.34,SE,124,2.0,2.0,80,0.00,,BKN200,0.00,VWS V14.01,2013-03-11 00:32:00,
2013-03-10 20:38:00,34.4,28.9,30.33,SE,124,2.0,2.0,80,0.00,,BKN200,0.00,VWS V14.01,2013-03-11 00:38:00,
2013-03-10 20:43:00,34.3,29.0,30.33,SE,124,2.0,2.0,81,0.00,,BKN200,0.00,VWS V14.01,2013-03-11 00:43:00,
2013-03-10 20:48:00,34.4,29.3,30.33,SE,124,2.0,2.0,81,0.00,,BKN200,0.00,VWS V14.01,2013-03-11 00:48:00,
2013-03-10 20:53:00,34.6,29.7,30.33,SE,124,2.0,2.0,82,0.00,,BKN200,0.00,VWS V14.01,2013-03-11 00:53:00,
2013-03-10 20:58:00,34.6,29.8,30.33,SE,124,2.0,2.0,82,0.00,,BKN200,0.00,VWS V14.01,2013-03-11 00:58:00,
2013-03-10 21:03:00,34.9,30.1,30.33,SE,124,2.0,2.0,82,0.00,,SCT250,0.00,VWS V14.01,2013-03-11 01:03:00,
2013-03-10 21:08:00,34.9,30.1,30.32,SE,124,2.0,2.0,83,0.00,,SCT250,0.00,VWS V14.01,2013-03-11 01:08:00,
2013-03-10 21:14:00,35.0,30.2,30.32,SE,124,2.0,2.0,83,0.00,,SCT250,0.00,VWS V14.01,2013-03-11 01:14:00,
2013-03-10 21:19:00,35.1,30.3,30.32,South,183,2.0,3.4,82,0.00,,SCT250,0.00,VWS V14.01,2013-03-11 01:19:00,
2013-03-10 21:25:00,35.1,30.4,30.32,SSW,202,2.0,2.0,83,0.00,,SCT250,0.00,VWS V14.01,2013-03-11 01:25:00,
2013-03-10 21:30:00,35.2,30.4,30.32,SSW,202,2.0,2.0,82,0.00,,SCT250,0.00,VWS V14.01,2013-03-11 01:30:00,
2013-03-10 21:35:00,35.1,30.4,30.32,SSW,202,2.0,2.0,83,0.00,,SCT250,0.00,VWS V14.01,2013-03-11 01:35:00,
2013-03-10 21:40:00,35.0,30.3,30.32,SSW,202,2.0,2.0,83,0.00,,SCT250,0.00,VWS V14.01,2013-03-11 01:40:00,
2013-03-10 21:45:00,34.9,30.3,30.32,SSW,202,2.0,2.0,83,0.00,,SCT250,0.00,VWS V14.01,2013-03-11 01:45:00,
2013-03-10 21:50:00,34.9,30.4,30.32,SSW,202,2.0,2.3,83,0.00,,SCT250,0.00,VWS V14.01,2013-03-11 01:50:00,
2013-03-10 21:55:00,34.7,30.2,30.33,SSW,202,2.0,2.0,83,0.00,,SCT250,0.00,VWS V14.01,2013-03-11 01:55:00,
2013-03-10 22:01:00,34.3,29.8,30.33,SSW,202,2.0,2.0,83,0.00,,SCT250,0.00,VWS V14.01,2013-03-11 02:01:00,
2013-03-10 22:07:00,34.0,29.6,30.32,SSW,202,2.0,2.0,84,0.00,,SCT250,0.00,VWS V14.01,2013-03-11 02:07:00,
2013-03-10 22:13:00,33.7,29.6,30.32,SSW,202,2.0,2.0,85,0.00,,SCT250,0.00,VWS V14.01,2013-03-11 02:13:00,
2013-03-10 22:18:00,33.7,29.7,30.32,WSW,249,2.3,2.8,85,0.00,,SCT250,0.00,VWS V14.01,2013-03-11 02:18:00,
2013-03-10 22:23:00,33.7,29.9,30.31,WSW,248,2.9,3.5,86,0.00,,SCT250,0.00,VWS V14.01,2013-03-11 02:23:00,
2013-03-10 22:29:00,33.8,30.1,30.31,WSW,238,2.0,2.0,86,0.00,,SCT250,0.00,VWS V14.01,2013-03-11 02:29:00,
2013-03-10 22:35:00,33.8,30.1,30.31,South,169,2.0,2.0,86,0.00,,SCT250,0.00,VWS V14.01,2013-03-11 02:35:00,
2013-03-10 22:41:00,33.9,30.4,30.31,SW,218,2.0,4.1,87,0.00,,SCT250,0.00,VWS V14.01,2013-03-11 02:41:00,
2013-03-10 22:46:00,34.2,30.7,30.31,SW,218,2.0,2.0,87,0.00,,SCT250,0.00,VWS V14.01,2013-03-11 02:46:00,
2013-03-10 22:52:00,34.3,30.8,30.31,WSW,250,4.4,4.7,87,0.00,,SCT250,0.00,VWS V14.01,2013-03-11 02:52:00,
2013-03-10 22:58:00,34.4,30.9,30.31,South,188,2.0,2.0,87,0.00,,SCT250,0.00,VWS V14.01,2013-03-11 02:58:00,
2013-03-10 23:03:00,34.4,30.8,30.31,WSW,253,2.7,4.4,86,0.00,,BKN250,0.00,VWS V14.01,2013-03-11 03:03:00,
2013-03-10 23:09:00,34.4,30.8,30.31,WSW,253,2.0,2.0,86,0.00,,BKN250,0.00,VWS V14.01,2013-03-11 03:09:00,
2013-03-10 23:14:00,34.5,30.9,30.31,WSW,253,2.0,2.0,86,0.00,,BKN250,0.00,VWS V14.01,2013-03-11 03:14:00,
2013-03-10 23:20:00,34.4,30.7,30.31,SSW,208,2.0,2.0,86,0.00,,BKN250,0.00,VWS V14.01,2013-03-11 03:20:00,
2013-03-10 23:27:00,34.4,30.9,30.31,SW,224,2.0,3.9,87,0.00,,BKN250,0.00,VWS V14.01,2013-03-11 03:27:00,
2013-03-10 23:32:00,34.6,30.9,30.31,SSW,198,2.0,2.9,86,0.00,,BKN250,0.00,VWS V14.01,2013-03-11 03:32:00,
2013-03-10 23:37:00,34.7,31.0,30.31,WSW,253,3.2,5.5,86,0.00,,BKN120,0.00,VWS V14.01,2013-03-11 03:37:00,
2013-03-10 23:43:00,34.5,30.8,30.31,WSW,248,2.0,2.0,86,0.00,,BKN120,0.00,VWS V14.01,2013-03-11 03:43:00,
2013-03-10 23:48:00,34.5,30.7,30.31,WSW,248,3.8,5.0,86,0.00,,OVC014,0.00,VWS V14.01,2013-03-11 03:48:00,
2013-03-10 23:54:00,34.5,30.7,30.31,SW,228,2.0,2.0,86,0.00,,OVC014,0.00,VWS V14.01,2013-03-11 03:54:00,